Time;durP1;ratioP1;P1;durP2;ratioP2;P2;SDS_P1;SDS_P2;PMS_P1;PMS_P2;Temp;Humidity;BMP_temperature;BMP_pressure;BME280_temperature;BME280_humidity;BME280_pressure;Samples;Min_cycle;Max_cycle;Signal;HPM_P1;HPM_P2
2021/12/09 00:01:45;;;;;;;8.70;8.50;;;1.80;99.90;;;;;;5081377;28;20237;-84
2021/12/09 00:04:24;;;;;;;8.60;8.40;;;1.80;99.90;;;;;;5082716;28;21459;-85
2021/12/09 00:06:53;;;;;;;8.80;8.60;;;1.70;99.90;;;;;;5082365;28;20293;-84
2021/12/09 00:09:21;;;;;;;8.50;8.30;;;1.70;99.90;;;;;;5067781;28;20290;-85
2021/12/09 00:11:50;;;;;;;8.40;8.20;;;1.70;99.90;;;;;;5062415;28;20238;-84
2021/12/09 00:14:22;;;;;;;8.40;8.20;;;1.70;99.90;;;;;;5060734;28;20227;-84
2021/12/09 00:16:52;;;;;;;8.57;8.37;;;1.70;99.90;;;;;;5062004;28;20281;-84
2021/12/09 00:19:21;;;;;;;8.57;8.37;;;1.70;99.90;;;;;;5083793;28;20325;-84
2021/12/09 00:21:49;;;;;;;8.20;8.00;;;1.70;99.90;;;;;;5099724;28;20237;-84
2021/12/09 00:24:17;;;;;;;8.60;8.40;;;1.70;99.90;;;;;;5099288;28;20221;-84
2021/12/09 00:26:46;;;;;;;8.80;8.60;;;1.70;99.90;;;;;;5088304;28;20233;-84
2021/12/09 00:29:15;;;;;;;8.40;8.20;;;1.70;99.90;;;;;;5081615;28;20280;-86
2021/12/09 00:31:43;;;;;;;8.40;8.20;;;1.80;99.90;;;;;;5079177;28;20226;-84
2021/12/09 00:34:12;;;;;;;8.40;8.20;;;1.80;99.90;;;;;;5079020;28;20253;-84
2021/12/09 00:36:43;;;;;;;8.60;8.40;;;1.50;99.90;;;;;;5076894;28;20238;-85
2021/12/09 00:39:13;;;;;;;8.60;8.40;;;1.30;99.90;;;;;;5078004;28;20234;-84
2021/12/09 00:41:41;;;;;;;9.00;8.70;;;1.10;99.90;;;;;;5078785;28;20245;-85
2021/12/09 00:44:09;;;;;;;8.57;8.37;;;1.00;99.90;;;;;;5079331;28;20230;-85
2021/12/09 00:46:38;;;;;;;8.80;8.60;;;0.80;99.90;;;;;;5080600;28;20322;-84
2021/12/09 00:49:06;;;;;;;8.70;8.50;;;0.80;99.90;;;;;;5079931;28;20233;-85
2021/12/09 00:51:36;;;;;;;8.63;8.43;;;0.90;99.90;;;;;;5081055;28;20239;-84
2021/12/09 00:54:06;;;;;;;8.67;8.47;;;0.90;99.90;;;;;;5081085;28;20215;-84
2021/12/09 00:56:34;;;;;;;8.53;8.33;;;0.90;99.90;;;;;;5080941;28;20242;-85
2021/12/09 00:59:01;;;;;;;8.77;8.57;;;1.00;99.90;;;;;;5080255;28;20369;-85
2021/12/09 01:01:29;;;;;;;8.40;8.20;;;1.00;99.90;;;;;;5082209;28;20371;-85
2021/12/09 01:03:57;;;;;;;8.80;8.60;;;1.10;99.90;;;;;;5093368;28;20238;-84
2021/12/09 01:06:25;;;;;;;8.67;8.47;;;1.00;99.90;;;;;;5084776;28;20257;-85
2021/12/09 01:08:54;;;;;;;8.70;8.50;;;1.00;99.90;;;;;;5074120;28;20235;-84
2021/12/09 01:11:22;;;;;;;8.80;8.60;;;1.10;99.90;;;;;;5063086;28;20238;-84
2021/12/09 01:13:50;;;;;;;8.70;8.50;;;1.10;99.90;;;;;;5063228;28;20223;-85
2021/12/09 01:16:18;;;;;;;8.67;8.47;;;1.20;99.90;;;;;;5063280;28;20239;-85
2021/12/09 01:18:46;;;;;;;8.70;8.50;;;1.20;99.90;;;;;;5063077;28;20235;-85
2021/12/09 01:21:14;;;;;;;8.70;8.50;;;1.30;99.90;;;;;;5062656;28;20626;-85
2021/12/09 01:26:19;;;;;;;9.10;8.80;;;1.40;99.90;;;;;;5122287;22;20238;-81
2021/12/09 01:28:51;;;;;;;8.97;8.70;;;1.40;99.90;;;;;;5064122;28;20236;-81
2021/12/09 01:31:23;;;;;;;8.80;8.60;;;1.40;99.90;;;;;;5061998;28;20231;-81
2021/12/09 01:34:01;;;;;;;9.10;8.80;;;1.30;99.90;;;;;;5063429;28;20231;-81
2021/12/09 01:39:05;;;;;;;8.93;8.70;;;1.40;99.90;;;;;;5065112;28;20234;-86
2021/12/09 01:41:35;;;;;;;9.03;8.73;;;1.40;99.90;;;;;;5082583;28;20241;-85
2021/12/09 01:44:05;;;;;;;9.10;8.80;;;1.40;99.90;;;;;;5053214;28;20235;-84
2021/12/09 01:46:32;;;;;;;9.10;8.80;;;1.50;99.90;;;;;;5072476;28;20231;-84
2021/12/09 01:49:01;;;;;;;8.67;8.47;;;1.40;99.90;;;;;;5066260;28;20257;-84
2021/12/09 01:51:29;;;;;;;8.50;8.30;;;1.50;99.90;;;;;;5064752;28;20233;-84
2021/12/09 01:53:57;;;;;;;8.60;8.40;;;1.50;99.90;;;;;;5064693;28;20226;-85
2021/12/09 01:56:28;;;;;;;8.50;8.30;;;1.60;99.90;;;;;;5059183;28;20242;-84
2021/12/09 01:58:59;;;;;;;8.80;8.60;;;1.50;99.90;;;;;;5058371;28;20244;-84
2021/12/09 02:01:27;;;;;;;8.60;8.40;;;1.50;99.90;;;;;;5058295;28;20314;-84
2021/12/09 02:03:56;;;;;;;8.50;8.30;;;1.50;99.90;;;;;;5056840;28;20219;-86
2021/12/09 02:06:24;;;;;;;8.60;8.40;;;1.50;99.90;;;;;;5056178;28;20233;-85
2021/12/09 02:08:53;;;;;;;8.73;8.53;;;1.50;99.90;;;;;;5059194;28;20234;-84
2021/12/09 02:11:21;;;;;;;9.00;8.70;;;1.50;99.90;;;;;;5063755;28;20227;-85
2021/12/09 02:13:52;;;;;;;8.80;8.60;;;1.60;99.90;;;;;;5058957;28;20220;-85
2021/12/09 02:16:21;;;;;;;8.83;8.60;;;1.60;99.90;;;;;;5057194;28;20289;-85
2021/12/09 02:18:50;;;;;;;9.07;8.77;;;1.60;99.90;;;;;;5056775;28;20242;-84
2021/12/09 02:21:22;;;;;;;8.80;8.60;;;1.60;99.90;;;;;;5055976;28;20232;-85
2021/12/09 02:23:54;;;;;;;8.67;8.47;;;1.60;99.90;;;;;;5057047;28;20226;-85
2021/12/09 02:26:26;;;;;;;9.00;8.70;;;1.60;99.90;;;;;;5062163;28;20231;-85
2021/12/09 02:28:56;;;;;;;9.10;8.80;;;1.60;99.90;;;;;;5060724;28;20701;-86
2021/12/09 02:31:27;;;;;;;8.73;8.53;;;1.60;99.90;;;;;;5059656;28;20226;-85
2021/12/09 02:33:55;;;;;;;9.10;8.80;;;1.60;99.90;;;;;;5060810;28;20219;-85
2021/12/09 02:36:26;;;;;;;8.93;8.70;;;1.60;99.90;;;;;;5062496;28;20223;-85
2021/12/09 02:38:55;;;;;;;8.60;8.40;;;1.70;99.90;;;;;;5062743;28;20238;-85
2021/12/09 02:41:28;;;;;;;8.60;8.40;;;1.70;99.90;;;;;;5062687;28;20282;-85
2021/12/09 02:44:01;;;;;;;8.60;8.40;;;1.70;99.90;;;;;;5063388;28;20265;-85
2021/12/09 02:46:34;;;;;;;8.57;8.37;;;1.60;99.90;;;;;;5063696;28;20239;-84
2021/12/09 02:49:03;;;;;;;8.60;8.40;;;1.60;99.90;;;;;;5063699;28;20300;-85
2021/12/09 02:51:32;;;;;;;8.80;8.60;;;1.60;99.90;;;;;;5062763;28;20282;-84
2021/12/09 02:54:00;;;;;;;8.47;8.27;;;1.60;99.90;;;;;;5062892;28;20227;-84
2021/12/09 02:56:31;;;;;;;9.00;8.70;;;1.50;99.90;;;;;;5062556;28;20235;-84
2021/12/09 02:58:58;;;;;;;8.70;8.50;;;1.50;99.90;;;;;;5062580;28;20234;-85
2021/12/09 03:01:31;;;;;;;8.70;8.50;;;1.50;99.90;;;;;;5062995;28;20233;-84
2021/12/09 03:04:01;;;;;;;8.70;8.50;;;1.50;99.90;;;;;;5063212;28;20261;-85
2021/12/09 03:06:36;;;;;;;8.53;8.33;;;1.50;99.90;;;;;;5062337;28;20237;-84
2021/12/09 03:09:08;;;;;;;8.30;8.10;;;1.40;99.90;;;;;;5063654;28;20231;-85
2021/12/09 03:11:36;;;;;;;8.53;8.33;;;1.40;99.90;;;;;;5063482;28;20259;-85
2021/12/09 03:14:05;;;;;;;8.57;8.37;;;1.50;99.90;;;;;;5081068;28;20226;-84
2021/12/09 03:16:33;;;;;;;8.47;8.27;;;1.50;99.90;;;;;;5080462;28;20219;-85
2021/12/09 03:19:06;;;;;;;8.50;8.30;;;1.50;99.90;;;;;;5077546;28;20285;-84
2021/12/09 03:21:39;;;;;;;8.50;8.30;;;1.50;99.90;;;;;;5067441;28;20233;-83
2021/12/09 03:24:11;;;;;;;8.67;8.47;;;1.50;99.90;;;;;;5071430;28;20234;-85
2021/12/09 03:26:42;;;;;;;8.60;8.40;;;1.50;99.90;;;;;;5061332;28;20241;-84
2021/12/09 03:29:14;;;;;;;8.37;8.17;;;1.60;99.90;;;;;;5075885;28;20230;-84
2021/12/09 03:31:44;;;;;;;8.30;8.10;;;1.60;99.90;;;;;;5065948;28;20219;-84
2021/12/09 03:34:13;;;;;;;8.63;8.43;;;1.60;99.90;;;;;;5064634;28;20237;-84
2021/12/09 03:36:44;;;;;;;8.10;7.90;;;1.50;99.90;;;;;;5064429;28;20239;-85
2021/12/09 03:39:16;;;;;;;8.43;8.23;;;1.50;99.90;;;;;;5064480;28;20243;-85
2021/12/09 03:41:45;;;;;;;8.50;8.30;;;1.40;99.90;;;;;;5063038;28;20231;-85
2021/12/09 03:44:13;;;;;;;8.37;8.17;;;1.50;99.90;;;;;;5061974;28;20231;-84
2021/12/09 03:46:41;;;;;;;8.50;8.30;;;1.50;99.90;;;;;;5061769;28;20233;-84
2021/12/09 03:49:09;;;;;;;8.57;8.37;;;1.40;99.90;;;;;;5062229;28;20231;-84
2021/12/09 03:51:38;;;;;;;8.60;8.40;;;1.50;99.90;;;;;;5061639;28;20242;-85
2021/12/09 03:54:10;;;;;;;8.47;8.27;;;1.50;99.90;;;;;;5061906;28;20230;-85
2021/12/09 03:56:40;;;;;;;8.50;8.30;;;1.50;99.90;;;;;;5061696;28;20226;-84
2021/12/09 03:59:10;;;;;;;8.27;8.07;;;1.50;99.90;;;;;;5061498;28;20234;-84
2021/12/09 04:01:41;;;;;;;8.20;8.00;;;1.50;99.90;;;;;;5061424;28;20278;-84
2021/12/09 04:04:09;;;;;;;8.50;8.30;;;1.60;99.90;;;;;;5061544;28;20265;-85
2021/12/09 04:06:38;;;;;;;8.40;8.20;;;1.60;99.90;;;;;;5061488;28;20230;-84
2021/12/09 04:09:10;;;;;;;8.53;8.33;;;1.50;99.90;;;;;;5062138;28;20237;-84
2021/12/09 04:11:38;;;;;;;8.40;8.20;;;1.50;99.90;;;;;;5062667;28;20230;-84
2021/12/09 04:14:07;;;;;;;8.63;8.43;;;1.50;99.90;;;;;;5062219;28;20215;-85
2021/12/09 04:16:35;;;;;;;8.30;8.10;;;1.40;99.90;;;;;;5063338;28;20227;-84
2021/12/09 04:19:05;;;;;;;8.40;8.20;;;1.40;99.90;;;;;;5062613;28;20226;-84
2021/12/09 04:21:33;;;;;;;8.50;8.30;;;1.50;99.90;;;;;;5062519;28;20238;-85
2021/12/09 04:24:07;;;;;;;8.50;8.30;;;1.50;99.90;;;;;;5061721;28;20242;-85
2021/12/09 04:26:37;;;;;;;8.23;8.03;;;1.50;99.90;;;;;;5062320;28;20249;-85
2021/12/09 04:29:06;;;;;;;8.23;8.03;;;1.40;99.90;;;;;;5062423;28;20226;-85
2021/12/09 04:31:35;;;;;;;8.07;7.87;;;1.40;99.90;;;;;;5062480;28;20231;-84
2021/12/09 04:34:03;;;;;;;8.40;8.20;;;1.40;99.90;;;;;;5062363;28;20230;-85
2021/12/09 04:36:31;;;;;;;8.40;8.20;;;1.30;99.90;;;;;;5061976;28;20261;-85
2021/12/09 04:38:59;;;;;;;8.47;8.27;;;1.30;99.90;;;;;;5062215;28;20234;-85
2021/12/09 04:41:27;;;;;;;8.33;8.13;;;1.30;99.90;;;;;;5062601;28;20249;-85
2021/12/09 04:43:56;;;;;;;8.13;7.93;;;1.20;99.90;;;;;;5062083;28;20231;-86
2021/12/09 04:46:24;;;;;;;8.20;8.00;;;1.20;99.90;;;;;;5062331;28;20235;-85
2021/12/09 04:48:52;;;;;;;8.47;8.27;;;1.20;99.90;;;;;;5062075;28;20243;-85
2021/12/09 04:51:20;;;;;;;8.20;8.00;;;1.20;99.90;;;;;;5061968;28;20319;-85
2021/12/09 04:53:48;;;;;;;8.30;8.10;;;1.20;99.90;;;;;;5062793;28;20269;-85
2021/12/09 04:56:16;;;;;;;8.50;8.30;;;1.20;99.90;;;;;;5062317;28;20234;-85
2021/12/09 04:58:44;;;;;;;8.50;8.30;;;1.30;99.90;;;;;;5062274;28;20293;-85
2021/12/09 05:01:14;;;;;;;8.77;8.57;;;1.20;99.90;;;;;;5062298;28;20301;-85
2021/12/09 05:03:45;;;;;;;8.47;8.27;;;1.20;99.90;;;;;;5062168;28;20254;-85
2021/12/09 05:06:13;;;;;;;8.53;8.33;;;1.30;99.90;;;;;;5062719;28;20246;-85
2021/12/09 05:08:45;;;;;;;8.30;8.10;;;1.40;99.90;;;;;;5063694;28;20238;-86
2021/12/09 05:11:26;;;;;;;8.27;8.07;;;1.50;99.90;;;;;;5063051;28;20238;-85
2021/12/09 05:13:54;;;;;;;8.20;8.00;;;1.50;99.90;;;;;;5062022;28;20223;-86
2021/12/09 05:16:24;;;;;;;8.40;8.20;;;1.50;99.90;;;;;;5061192;28;20233;-86
2021/12/09 05:18:58;;;;;;;8.50;8.30;;;1.60;99.90;;;;;;5061819;28;20241;-86
2021/12/09 05:21:29;;;;;;;8.67;8.47;;;1.60;99.90;;;;;;5061880;28;20241;-84
2021/12/09 05:23:58;;;;;;;8.50;8.30;;;1.60;99.90;;;;;;5074263;28;20207;-86
2021/12/09 05:26:31;;;;;;;8.47;8.27;;;1.50;99.90;;;;;;5079470;28;20211;-87
2021/12/09 05:28:59;;;;;;;8.80;8.60;;;1.50;99.90;;;;;;5079879;28;20207;-85
2021/12/09 05:34:18;;;;;;;8.90;8.60;;;1.50;99.90;;;;;;5046223;28;20223;-86
2021/12/09 05:36:46;;;;;;;8.53;8.33;;;1.50;99.90;;;;;;5063687;28;20238;-86
2021/12/09 05:39:15;;;;;;;8.60;8.40;;;1.40;99.90;;;;;;5063851;28;20234;-85
2021/12/09 05:41:43;;;;;;;8.60;8.40;;;1.40;99.90;;;;;;5063885;28;20223;-84
2021/12/09 05:44:14;;;;;;;8.93;8.63;;;1.30;99.90;;;;;;5062655;28;20222;-85
2021/12/09 05:46:47;;;;;;;9.00;8.70;;;1.40;99.90;;;;;;5062432;28;20230;-86
2021/12/09 05:49:16;;;;;;;9.00;8.70;;;1.40;99.90;;;;;;5061818;28;20231;-86
2021/12/09 05:51:45;;;;;;;9.03;8.73;;;1.40;99.90;;;;;;5062967;28;20215;-85
2021/12/09 05:54:13;;;;;;;8.97;8.67;;;1.50;99.90;;;;;;5061852;28;20340;-86
2021/12/09 05:56:41;;;;;;;8.90;8.60;;;1.50;99.90;;;;;;5062187;28;20229;-85
2021/12/09 05:59:10;;;;;;;9.00;8.70;;;1.50;99.90;;;;;;5061739;28;20234;-85
2021/12/09 06:01:39;;;;;;;8.93;8.63;;;1.50;99.90;;;;;;5062000;28;20290;-84
2021/12/09 06:04:10;;;;;;;9.03;8.73;;;1.50;99.90;;;;;;5063913;28;20234;-84
2021/12/09 06:06:41;;;;;;;9.10;8.80;;;1.50;99.90;;;;;;5064509;28;20249;-84
2021/12/09 06:09:11;;;;;;;9.37;9.07;;;1.50;99.90;;;;;;5064457;28;20238;-84
2021/12/09 06:11:39;;;;;;;9.00;8.70;;;1.60;99.90;;;;;;5067322;28;20230;-84
2021/12/09 06:14:09;;;;;;;8.80;8.60;;;1.60;99.90;;;;;;5074889;28;20199;-84
2021/12/09 06:16:37;;;;;;;9.00;8.70;;;1.60;99.90;;;;;;5064937;28;20223;-84
2021/12/09 06:19:06;;;;;;;8.80;8.60;;;1.70;99.90;;;;;;5064726;28;20230;-84
2021/12/09 06:21:35;;;;;;;8.90;8.60;;;1.70;99.90;;;;;;5063604;28;20296;-84
2021/12/09 06:24:04;;;;;;;9.10;8.80;;;1.70;99.90;;;;;;5063715;28;20223;-84
2021/12/09 06:26:33;;;;;;;8.97;8.67;;;1.60;99.90;;;;;;5064363;28;20246;-84
2021/12/09 06:29:02;;;;;;;8.40;8.20;;;1.60;99.90;;;;;;5064046;28;20239;-84
2021/12/09 06:31:30;;;;;;;9.02;8.73;;;1.60;99.90;;;;;;5064763;28;20401;-84
2021/12/09 06:33:57;;;;;;;8.60;8.40;;;1.60;99.90;;;;;;5064764;28;20234;-84
2021/12/09 06:36:25;;;;;;;8.20;8.00;;;1.60;99.90;;;;;;5063714;28;20226;-84
2021/12/09 06:38:55;;;;;;;8.03;7.83;;;1.70;99.90;;;;;;5063405;28;20235;-82
2021/12/09 06:41:23;;;;;;;8.40;8.20;;;1.70;99.90;;;;;;5060423;28;20230;-84
2021/12/09 06:43:50;;;;;;;8.40;8.20;;;1.60;99.90;;;;;;5062007;28;20230;-84
2021/12/09 06:46:18;;;;;;;8.40;8.20;;;1.60;99.90;;;;;;5059732;28;20253;-83
2021/12/09 06:48:46;;;;;;;9.57;9.27;;;1.60;99.90;;;;;;5058944;28;20256;-83
2021/12/09 06:51:15;;;;;;;9.40;9.10;;;1.50;99.90;;;;;;5059048;28;20313;-83
2021/12/09 06:53:43;;;;;;;9.70;9.40;;;1.40;99.90;;;;;;5060226;28;20233;-83
2021/12/09 06:56:12;;;;;;;9.50;9.20;;;1.40;99.90;;;;;;5061147;28;20234;-83
2021/12/09 06:58:40;;;;;;;9.60;9.30;;;1.40;99.90;;;;;;5073772;28;20239;-83
2021/12/09 07:01:08;;;;;;;9.60;9.30;;;1.40;99.90;;;;;;5073553;28;20223;-84
2021/12/09 07:03:38;;;;;;;9.60;9.30;;;1.30;99.90;;;;;;5071502;28;20226;-84
2021/12/09 07:06:08;;;;;;;9.70;9.40;;;1.30;99.90;;;;;;5059558;28;20265;-83
2021/12/09 07:08:42;;;;;;;9.60;9.30;;;1.30;99.90;;;;;;5060999;28;20630;-84
2021/12/09 07:11:12;;;;;;;9.50;9.20;;;1.40;99.90;;;;;;5060966;28;20253;-84
2021/12/09 07:13:40;;;;;;;9.70;9.40;;;1.40;99.90;;;;;;5061001;28;20234;-85
2021/12/09 07:16:08;;;;;;;9.80;9.50;;;1.40;99.90;;;;;;5061887;28;20262;-84
2021/12/09 07:18:36;;;;;;;9.73;9.43;;;1.40;99.90;;;;;;5062707;28;20242;-84
2021/12/09 07:21:05;;;;;;;9.57;9.27;;;1.50;99.90;;;;;;5060759;28;20705;-86
2021/12/09 07:23:35;;;;;;;9.47;9.17;;;1.50;99.90;;;;;;5060880;28;20702;-86
2021/12/09 07:26:03;;;;;;;9.60;9.30;;;1.60;99.90;;;;;;5060465;28;20238;-87
2021/12/09 07:28:33;;;;;;;9.63;9.33;;;1.60;99.90;;;;;;5071283;28;20230;-87
2021/12/09 07:31:01;;;;;;;10.00;9.70;;;1.60;99.90;;;;;;5058119;28;20230;-88
2021/12/09 07:33:29;;;;;;;9.70;9.40;;;1.60;99.90;;;;;;5057594;28;20238;-88
2021/12/09 07:35:57;;;;;;;9.60;9.30;;;1.70;99.90;;;;;;5057155;28;20246;-88
2021/12/09 07:38:25;;;;;;;9.33;9.03;;;1.70;99.90;;;;;;5056543;28;20234;-88
2021/12/09 07:40:53;;;;;;;9.50;9.20;;;1.80;99.90;;;;;;5057223;28;20230;-88
2021/12/09 07:43:21;;;;;;;9.43;9.13;;;1.80;99.90;;;;;;5057217;28;20234;-88
2021/12/09 07:45:51;;;;;;;10.30;10.00;;;1.90;99.90;;;;;;5057300;28;20429;-86
2021/12/09 07:48:19;;;;;;;9.40;9.10;;;1.90;99.90;;;;;;5056785;28;20238;-87
2021/12/09 07:50:47;;;;;;;9.73;9.43;;;2.00;99.90;;;;;;5056930;28;20235;-87
2021/12/09 07:53:17;;;;;;;9.73;9.43;;;2.00;99.90;;;;;;5057250;28;20219;-88
2021/12/09 07:55:45;;;;;;;9.87;9.57;;;2.10;99.90;;;;;;5057224;28;20254;-88
2021/12/09 07:58:13;;;;;;;9.53;9.23;;;2.10;99.90;;;;;;5056992;28;20239;-88
2021/12/09 08:00:41;;;;;;;9.77;9.47;;;2.10;99.90;;;;;;5056864;28;20233;-88
2021/12/09 08:03:10;;;;;;;9.60;9.30;;;2.20;99.90;;;;;;5056771;28;20223;-88
2021/12/09 08:05:42;;;;;;;9.67;9.37;;;2.20;99.90;;;;;;5056476;28;20736;-88
2021/12/09 08:08:10;;;;;;;9.53;9.23;;;2.20;99.90;;;;;;5056573;28;20239;-88
2021/12/09 08:10:38;;;;;;;8.63;8.43;;;2.10;99.90;;;;;;5056217;28;20226;-87
2021/12/09 08:13:07;;;;;;;9.50;9.20;;;2.10;99.90;;;;;;5057693;28;20230;-88
2021/12/09 08:15:45;;;;;;;9.33;9.03;;;2.10;99.90;;;;;;5058672;28;20258;-87
2021/12/09 08:18:27;;;;;;;9.60;9.30;;;2.10;99.90;;;;;;5056976;28;20261;-88
2021/12/09 08:20:57;;;;;;;9.63;9.33;;;2.10;99.90;;;;;;5059776;28;20234;-84
2021/12/09 08:23:26;;;;;;;9.60;9.30;;;2.10;99.90;;;;;;5064898;28;20222;-84
2021/12/09 08:25:57;;;;;;;9.60;9.30;;;2.10;99.90;;;;;;5063967;28;20230;-82
2021/12/09 08:28:25;;;;;;;9.70;9.40;;;2.00;99.90;;;;;;5061117;28;20254;-83
2021/12/09 08:30:53;;;;;;;9.73;9.43;;;2.10;99.90;;;;;;5062123;28;20234;-83
2021/12/09 08:33:25;;;;;;;9.57;9.27;;;2.20;99.90;;;;;;5063096;28;20285;-86
2021/12/09 08:35:53;;;;;;;9.80;9.50;;;2.10;99.90;;;;;;5062931;28;20261;-84
2021/12/09 08:38:24;;;;;;;9.50;9.20;;;2.10;99.90;;;;;;5063359;28;20717;-85
2021/12/09 08:40:53;;;;;;;9.43;9.13;;;2.10;99.90;;;;;;5062571;28;20234;-84
2021/12/09 08:43:22;;;;;;;9.50;9.20;;;2.10;99.90;;;;;;5063316;28;20374;-85
2021/12/09 08:45:56;;;;;;;9.40;9.10;;;2.10;99.90;;;;;;5063001;28;20239;-85
2021/12/09 08:48:28;;;;;;;9.47;9.17;;;2.10;99.90;;;;;;5063423;28;20245;-86
2021/12/09 08:50:56;;;;;;;9.57;9.27;;;2.20;99.90;;;;;;5062589;28;20231;-85
2021/12/09 08:53:26;;;;;;;9.37;9.07;;;2.20;99.90;;;;;;5062157;28;20219;-85
2021/12/09 08:55:55;;;;;;;9.60;9.30;;;2.10;99.90;;;;;;5061633;28;20230;-85
2021/12/09 08:58:24;;;;;;;9.50;9.20;;;2.10;99.90;;;;;;5060728;28;20234;-84
2021/12/09 09:00:54;;;;;;;9.30;9.00;;;2.10;99.90;;;;;;5062756;28;20277;-86
2021/12/09 09:03:22;;;;;;;9.23;8.93;;;2.00;99.90;;;;;;5063204;28;20219;-85
2021/12/09 09:05:52;;;;;;;9.30;9.00;;;2.10;99.90;;;;;;5068176;28;20222;-85
2021/12/09 09:08:20;;;;;;;9.23;8.93;;;2.10;99.90;;;;;;5064552;28;20234;-85
2021/12/09 09:10:49;;;;;;;9.00;8.70;;;2.10;99.90;;;;;;5060224;28;20242;-85
2021/12/09 09:13:17;;;;;;;9.30;9.00;;;2.10;99.90;;;;;;5061984;28;20292;-84
2021/12/09 09:15:48;;;;;;;9.60;9.30;;;2.10;99.90;;;;;;5074835;28;20207;-85
2021/12/09 09:18:17;;;;;;;9.50;9.20;;;2.20;99.90;;;;;;5079615;28;20230;-85
2021/12/09 09:20:45;;;;;;;9.57;9.27;;;2.20;99.90;;;;;;5079573;28;20219;-86
2021/12/09 09:23:19;;;;;;;9.20;8.90;;;2.30;99.90;;;;;;5079208;28;20286;-86
2021/12/09 09:25:47;;;;;;;9.40;9.10;;;2.30;99.90;;;;;;5070045;28;20299;-86
2021/12/09 09:28:16;;;;;;;9.60;9.30;;;2.30;99.90;;;;;;5068343;28;20234;-86
2021/12/09 09:30:53;;;;;;;9.63;9.33;;;2.30;99.90;;;;;;5066795;28;20229;-86
2021/12/09 09:33:23;;;;;;;9.47;9.17;;;2.40;99.90;;;;;;5065028;28;20226;-85
2021/12/09 09:35:51;;;;;;;9.53;9.23;;;2.40;99.90;;;;;;5065183;28;20305;-85
2021/12/09 09:38:21;;;;;;;9.20;8.90;;;2.50;99.90;;;;;;5064368;28;20238;-85
2021/12/09 09:40:59;;;;;;;9.70;9.40;;;2.50;99.90;;;;;;5063948;28;20226;-85
2021/12/09 09:43:31;;;;;;;9.37;9.07;;;2.50;99.90;;;;;;5064582;28;20983;-86
2021/12/09 09:46:03;;;;;;;9.33;9.03;;;2.50;99.90;;;;;;5066480;28;20231;-86
2021/12/09 09:48:31;;;;;;;9.60;9.30;;;2.50;99.90;;;;;;5066335;28;20234;-86
2021/12/09 09:51:00;;;;;;;9.43;9.13;;;2.50;99.90;;;;;;5065899;28;20297;-86
2021/12/09 09:53:29;;;;;;;9.43;9.13;;;2.50;99.90;;;;;;5066444;28;20257;-86
2021/12/09 09:55:57;;;;;;;9.27;8.97;;;2.50;99.90;;;;;;5066105;28;20235;-86
2021/12/09 09:58:25;;;;;;;9.30;9.00;;;2.60;99.90;;;;;;5067066;28;20245;-86
2021/12/09 10:00:54;;;;;;;9.63;9.33;;;2.60;99.90;;;;;;5066553;28;20334;-85
2021/12/09 10:03:28;;;;;;;9.30;9.00;;;2.60;99.90;;;;;;5066541;28;20207;-85
2021/12/09 10:05:59;;;;;;;9.60;9.30;;;2.60;99.90;;;;;;5066146;28;20249;-86
2021/12/09 10:08:29;;;;;;;9.20;8.90;;;2.60;99.90;;;;;;5066294;28;20307;-85
2021/12/09 10:10:57;;;;;;;9.37;9.07;;;2.60;99.90;;;;;;5066909;28;20250;-86
2021/12/09 10:13:30;;;;;;;9.53;9.23;;;2.60;99.90;;;;;;5067299;28;20311;-86
2021/12/09 10:15:58;;;;;;;9.20;8.90;;;2.60;99.90;;;;;;5069720;28;20227;-83
2021/12/09 10:18:38;;;;;;;9.47;9.17;;;2.60;99.90;;;;;;5072789;28;20235;-83
2021/12/09 10:21:08;;;;;;;9.33;9.03;;;2.70;99.90;;;;;;5071863;28;20237;-84
2021/12/09 10:23:42;;;;;;;9.60;9.30;;;2.70;99.90;;;;;;5070775;28;20222;-85
2021/12/09 10:26:23;;;;;;;9.40;9.10;;;2.70;99.90;;;;;;5068680;28;20322;-85
2021/12/09 10:28:56;;;;;;;9.07;8.77;;;2.70;99.90;;;;;;5069638;28;20253;-86
2021/12/09 10:31:31;;;;;;;9.30;9.00;;;2.70;99.90;;;;;;5068823;28;20303;-85
2021/12/09 10:34:33;;;;;;;9.27;8.97;;;2.70;99.90;;;;;;5068483;28;20215;-87
2021/12/09 10:37:15;;;;;;;9.43;9.13;;;2.60;99.90;;;;;;5065425;28;20244;-86
2021/12/09 10:39:51;;;;;;;9.13;8.83;;;2.60;99.90;;;;;;5071084;28;20230;-86
2021/12/09 10:42:24;;;;;;;9.70;9.40;;;2.70;99.90;;;;;;5068180;28;20226;-86
2021/12/09 10:44:58;;;;;;;9.63;9.33;;;2.70;99.90;;;;;;5067587;28;20250;-85
2021/12/09 10:47:50;;;;;;;9.73;9.43;;;2.70;99.90;;;;;;5068381;28;20234;-85
2021/12/09 10:50:32;;;;;;;9.60;9.30;;;2.80;99.90;;;;;;5067562;28;20235;-86
2021/12/09 10:53:17;;;;;;;9.27;8.97;;;2.80;99.90;;;;;;5068941;28;20223;-85
2021/12/09 10:55:48;;;;;;;9.50;9.20;;;2.80;99.90;;;;;;5070005;28;20234;-85
2021/12/09 10:58:19;;;;;;;9.60;9.30;;;2.80;99.90;;;;;;5072671;28;20265;-86
2021/12/09 11:00:52;;;;;;;9.47;9.17;;;2.80;99.90;;;;;;5073855;28;20231;-86
2021/12/09 11:03:24;;;;;;;9.57;9.27;;;2.80;99.90;;;;;;5073271;28;20257;-86
2021/12/09 11:06:00;;;;;;;9.50;9.20;;;2.90;99.90;;;;;;5072309;28;20235;-85
2021/12/09 11:08:36;;;;;;;9.80;9.50;;;2.90;99.90;;;;;;5076130;28;20234;-84
2021/12/09 11:11:13;;;;;;;9.43;9.13;;;2.90;99.90;;;;;;5074608;28;20239;-84
2021/12/09 11:13:50;;;;;;;9.87;9.57;;;3.00;99.90;;;;;;5074575;28;20223;-85
2021/12/09 11:16:26;;;;;;;9.27;8.97;;;3.00;99.90;;;;;;5072467;28;20288;-86
2021/12/09 11:19:00;;;;;;;9.60;9.30;;;3.10;99.90;;;;;;5073979;28;20242;-85
2021/12/09 11:21:34;;;;;;;9.70;9.40;;;3.10;99.90;;;;;;5076125;28;20310;-85
2021/12/09 11:24:07;;;;;;;9.57;9.27;;;3.10;99.90;;;;;;5073172;28;20223;-86
2021/12/09 11:26:45;;;;;;;9.80;9.50;;;3.20;99.90;;;;;;5071404;28;20229;-81
2021/12/09 11:29:17;;;;;;;9.70;9.40;;;3.30;99.90;;;;;;5078855;28;20234;-86
2021/12/09 11:31:58;;;;;;;9.70;9.40;;;3.30;99.90;;;;;;5078752;28;20226;-85
2021/12/09 11:34:32;;;;;;;10.10;9.80;;;3.30;99.90;;;;;;5078669;28;20229;-86
2021/12/09 11:37:07;;;;;;;9.97;9.67;;;3.40;99.90;;;;;;5077244;28;20231;-85
2021/12/09 11:39:38;;;;;;;10.17;9.87;;;3.40;99.90;;;;;;5076445;28;20234;-86
2021/12/09 11:42:25;;;;;;;9.90;9.60;;;3.40;99.90;;;;;;5066433;28;20231;-86
2021/12/09 11:44:53;;;;;;;9.53;9.23;;;3.50;99.90;;;;;;5064741;28;20227;-86
2021/12/09 11:47:21;;;;;;;9.50;9.20;;;3.40;99.90;;;;;;5068022;28;20231;-86
2021/12/09 11:49:51;;;;;;;9.73;9.43;;;3.40;99.90;;;;;;5064746;28;20273;-86
2021/12/09 11:52:21;;;;;;;10.07;9.77;;;3.40;99.90;;;;;;5055976;28;20239;-86
2021/12/09 11:54:57;;;;;;;9.80;9.50;;;3.40;99.90;;;;;;5051341;28;20238;-85
2021/12/09 11:57:36;;;;;;;10.00;9.70;;;3.50;99.90;;;;;;5061835;28;20238;-86
2021/12/09 12:12:52;;;;;;;10.23;9.93;;;3.50;99.90;;;;;;5063269;28;20218;-85
2021/12/09 12:15:52;;;;;;;10.20;9.90;;;3.50;99.90;;;;;;5063609;28;20231;-86
2021/12/09 12:30:59;;;;;;;10.07;9.77;;;3.40;99.90;;;;;;5064910;28;20269;-78
2021/12/09 12:34:15;;;;;;;10.50;10.20;;;3.50;99.90;;;;;;5066060;28;20214;-79
2021/12/09 12:37:13;;;;;;;10.10;9.80;;;3.70;99.90;;;;;;5044170;28;20228;-86
2021/12/09 12:42:50;;;;;;;9.90;9.60;;;3.80;99.90;;;;;;5044309;28;20292;-85
2021/12/09 12:45:46;;;;;;;10.03;9.73;;;3.80;99.90;;;;;;5045258;28;20227;-86
2021/12/09 12:48:50;;;;;;;9.80;9.50;;;3.70;99.90;;;;;;5044463;28;20266;-86
2021/12/09 12:51:28;;;;;;;10.10;9.80;;;3.70;99.90;;;;;;5044591;28;20227;-87
2021/12/09 12:54:00;;;;;;;9.93;9.63;;;3.70;99.90;;;;;;5045440;28;20250;-85
2021/12/09 12:56:31;;;;;;;9.80;9.50;;;3.70;99.90;;;;;;5053292;28;20227;-86
2021/12/09 12:59:29;;;;;;;9.90;9.60;;;3.70;99.90;;;;;;5064096;28;20226;-85
2021/12/09 13:02:21;;;;;;;9.87;9.57;;;3.80;99.90;;;;;;5066316;28;20226;-84
2021/12/09 13:05:00;;;;;;;10.23;9.93;;;3.80;99.90;;;;;;5068570;28;20222;-84
2021/12/09 13:07:41;;;;;;;10.10;9.80;;;3.80;99.90;;;;;;5068305;28;20246;-84
2021/12/09 13:10:29;;;;;;;10.00;9.70;;;3.80;99.90;;;;;;5067117;28;20231;-85
2021/12/09 13:13:17;;;;;;;10.40;10.10;;;3.80;99.90;;;;;;5068076;28;20223;-84
2021/12/09 13:16:15;;;;;;;10.57;10.27;;;3.80;99.90;;;;;;5066248;28;20211;-85
2021/12/09 13:18:59;;;;;;;10.50;10.20;;;3.90;99.90;;;;;;5065820;28;20234;-84
2021/12/09 13:21:54;;;;;;;10.17;9.87;;;3.90;99.90;;;;;;5067288;28;20292;-84
2021/12/09 13:24:46;;;;;;;10.40;10.10;;;3.90;99.90;;;;;;5067469;28;20241;-84
2021/12/09 13:27:41;;;;;;;10.40;10.10;;;3.90;99.90;;;;;;5065956;28;20238;-85
2021/12/09 13:30:58;;;;;;;10.30;10.00;;;3.90;99.90;;;;;;5065647;28;20227;-84
2021/12/09 13:39:29;;;;;;;10.20;9.90;;;3.50;99.90;;;;;;5068113;28;20234;-84
2021/12/09 13:47:49;;;;;;;10.27;9.97;;;3.20;99.90;;;;;;5068716;28;20239;-83
2021/12/09 13:50:52;;;;;;;10.13;9.83;;;3.20;99.90;;;;;;5067565;28;20246;-83
2021/12/09 13:56:07;;;;;;;10.27;9.97;;;3.10;99.90;;;;;;5065635;28;20222;-84
2021/12/09 13:58:35;;;;;;;10.27;9.97;;;3.20;99.90;;;;;;5065564;28;20238;-84
2021/12/09 14:01:05;;;;;;;10.43;10.13;;;3.20;99.90;;;;;;5065991;28;20276;-84
2021/12/09 14:03:33;;;;;;;10.70;10.40;;;3.20;99.90;;;;;;5066036;28;20215;-83
2021/12/09 14:06:08;;;;;;;10.50;10.20;;;3.30;99.90;;;;;;5065793;28;20231;-80
2021/12/09 14:08:44;;;;;;;10.40;10.10;;;3.30;99.90;;;;;;5064826;28;20615;-82
2021/12/09 14:11:21;;;;;;;10.33;10.03;;;3.40;99.90;;;;;;5066153;28;20239;-84